sensor_id;sensor_type;location;lat;lon;timestamp;pressure;altitude;pressure_sealevel;temperature;humidity
85166;BME280;75533;52.100;10.228;2024-02-16T00:00:43;99795.38;;;18.03;49.29
85166;BME280;75533;52.100;10.228;2024-02-16T00:03:11;99804.50;;;18.04;49.07
85166;BME280;75533;52.100;10.228;2024-02-16T00:05:36;99800.06;;;18.02;49.16
85166;BME280;75533;52.100;10.228;2024-02-16T00:08:02;99801.97;;;18.02;49.25
85166;BME280;75533;52.100;10.228;2024-02-16T00:10:28;99790.06;;;18.01;49.14
85166;BME280;75533;52.100;10.228;2024-02-16T00:12:54;99798.34;;;18.01;49.06
85166;BME280;75533;52.100;10.228;2024-02-16T00:15:19;99796.44;;;18.02;48.95
85166;BME280;75533;52.100;10.228;2024-02-16T00:17:45;99797.50;;;18.01;49.16
85166;BME280;75533;52.100;10.228;2024-02-16T00:20:10;99796.66;;;18.00;49.14
85166;BME280;75533;52.100;10.228;2024-02-16T00:22:37;99789.41;;;17.99;49.23
85166;BME280;75533;52.100;10.228;2024-02-16T00:25:03;99785.81;;;17.99;49.38
85166;BME280;75533;52.100;10.228;2024-02-16T00:27:29;99783.69;;;18.01;49.15
85166;BME280;75533;52.100;10.228;2024-02-16T00:29:54;99784.72;;;18.00;49.20
85166;BME280;75533;52.100;10.228;2024-02-16T00:32:20;99780.09;;;18.00;49.37
85166;BME280;75533;52.100;10.228;2024-02-16T00:34:45;99773.91;;;17.98;49.14
85166;BME280;75533;52.100;10.228;2024-02-16T00:37:10;99778.56;;;17.98;49.17
85166;BME280;75533;52.100;10.228;2024-02-16T00:39:39;99774.75;;;17.99;49.10
85166;BME280;75533;52.100;10.228;2024-02-16T00:42:08;99768.59;;;17.97;49.00
85166;BME280;75533;52.100;10.228;2024-02-16T00:44:34;99774.97;;;17.97;48.94
85166;BME280;75533;52.100;10.228;2024-02-16T00:47:00;99772.44;;;17.96;49.20
85166;BME280;75533;52.100;10.228;2024-02-16T00:49:25;99770.50;;;17.96;49.19
85166;BME280;75533;52.100;10.228;2024-02-16T00:51:50;99768.81;;;17.95;48.91
85166;BME280;75533;52.100;10.228;2024-02-16T00:54:16;99753.94;;;17.96;49.11
85166;BME280;75533;52.100;10.228;2024-02-16T00:56:42;99755.00;;;17.95;49.07
85166;BME280;75533;52.100;10.228;2024-02-16T00:59:08;99755.22;;;17.94;49.13
85166;BME280;75533;52.100;10.228;2024-02-16T01:01:35;99749.91;;;17.92;48.80
85166;BME280;75533;52.100;10.228;2024-02-16T01:04:01;99745.88;;;17.95;49.03
85166;BME280;75533;52.100;10.228;2024-02-16T01:06:27;99746.94;;;17.94;49.14
85166;BME280;75533;52.100;10.228;2024-02-16T01:08:52;99740.56;;;17.93;49.11
85166;BME280;75533;52.100;10.228;2024-02-16T01:11:18;99725.69;;;17.94;49.12
85166;BME280;75533;52.100;10.228;2024-02-16T01:13:45;99724.00;;;17.93;49.02
85166;BME280;75533;52.100;10.228;2024-02-16T01:16:11;99723.38;;;17.91;49.14
85166;BME280;75533;52.100;10.228;2024-02-16T01:18:36;99730.81;;;17.91;48.90
85166;BME280;75533;52.100;10.228;2024-02-16T01:21:02;99725.28;;;17.91;49.00
85166;BME280;75533;52.100;10.228;2024-02-16T01:23:29;99726.13;;;17.91;49.13
85166;BME280;75533;52.100;10.228;2024-02-16T01:25:54;99713.38;;;17.90;49.17
85166;BME280;75533;52.100;10.228;2024-02-16T01:28:19;99716.16;;;17.90;49.38
85166;BME280;75533;52.100;10.228;2024-02-16T01:30:45;99713.38;;;17.90;49.23
85166;BME280;75533;52.100;10.228;2024-02-16T01:33:10;99706.16;;;17.89;48.81
85166;BME280;75533;52.100;10.228;2024-02-16T01:35:36;99716.16;;;17.90;48.88
85166;BME280;75533;52.100;10.228;2024-02-16T01:38:01;99716.16;;;17.90;49.03
85166;BME280;75533;52.100;10.228;2024-02-16T01:40:27;99708.75;;;17.84;48.86
85166;BME280;75533;52.100;10.228;2024-02-16T01:42:53;99707.88;;;17.90;48.65
85166;BME280;75533;52.100;10.228;2024-02-16T01:45:19;99709.16;;;17.88;49.16
85166;BME280;75533;52.100;10.228;2024-02-16T01:47:46;99718.50;;;17.87;49.07
85166;BME280;75533;52.100;10.228;2024-02-16T01:50:14;99717.44;;;17.88;49.00
85166;BME280;75533;52.100;10.228;2024-02-16T01:52:46;99714.69;;;17.88;49.00
85166;BME280;75533;52.100;10.228;2024-02-16T01:55:12;99720.19;;;17.88;49.32
85166;BME280;75533;52.100;10.228;2024-02-16T01:57:45;99720.41;;;17.86;49.04
85166;BME280;75533;52.100;10.228;2024-02-16T02:00:12;99714.91;;;17.86;49.16
85166;BME280;75533;52.100;10.228;2024-02-16T02:02:40;99716.81;;;17.86;48.93
85166;BME280;75533;52.100;10.228;2024-02-16T02:05:05;99720.41;;;17.86;48.99
85166;BME280;75533;52.100;10.228;2024-02-16T02:07:31;99712.13;;;17.86;49.61
85166;BME280;75533;52.100;10.228;2024-02-16T02:09:56;99711.28;;;17.86;48.91
85166;BME280;75533;52.100;10.228;2024-02-16T02:12:22;99704.06;;;17.78;48.72
85166;BME280;75533;52.100;10.228;2024-02-16T02:14:48;99704.91;;;17.85;49.15
85166;BME280;75533;52.100;10.228;2024-02-16T02:17:14;99703.22;;;17.84;48.72
85166;BME280;75533;52.100;10.228;2024-02-16T02:19:39;99705.13;;;17.84;48.87
85166;BME280;75533;52.100;10.228;2024-02-16T02:22:12;99696.00;;;17.83;48.83
85166;BME280;75533;52.100;10.228;2024-02-16T02:24:38;99697.69;;;17.84;49.10
85166;BME280;75533;52.100;10.228;2024-02-16T02:27:03;99694.31;;;17.82;48.86
85166;BME280;75533;52.100;10.228;2024-02-16T02:29:29;99691.56;;;17.82;48.86
85166;BME280;75533;52.100;10.228;2024-02-16T02:31:55;99692.63;;;17.81;48.74
85166;BME280;75533;52.100;10.228;2024-02-16T02:34:20;99693.47;;;17.82;49.00
85166;BME280;75533;52.100;10.228;2024-02-16T02:36:45;99690.94;;;17.80;48.58
85166;BME280;75533;52.100;10.228;2024-02-16T02:39:11;99689.00;;;17.81;48.88
85166;BME280;75533;52.100;10.228;2024-02-16T02:41:38;99682.41;;;17.75;48.74
85166;BME280;75533;52.100;10.228;2024-02-16T02:44:04;99675.41;;;17.79;48.87
85166;BME280;75533;52.100;10.228;2024-02-16T02:46:30;99680.72;;;17.81;48.72
85166;BME280;75533;52.100;10.228;2024-02-16T02:48:55;99687.50;;;17.78;48.76
85166;BME280;75533;52.100;10.228;2024-02-16T02:51:20;99679.22;;;17.78;48.51
85166;BME280;75533;52.100;10.228;2024-02-16T02:53:46;99672.66;;;17.79;48.79
85166;BME280;75533;52.100;10.228;2024-02-16T02:56:11;99670.94;;;17.78;48.47
85166;BME280;75533;52.100;10.228;2024-02-16T02:58:39;99659.06;;;17.71;48.84
85166;BME280;75533;52.100;10.228;2024-02-16T03:01:04;99667.31;;;17.78;48.97
85166;BME280;75533;52.100;10.228;2024-02-16T03:03:32;99663.72;;;17.77;48.67
85166;BME280;75533;52.100;10.228;2024-02-16T03:05:58;99663.72;;;17.77;48.68
85166;BME280;75533;52.100;10.228;2024-02-16T03:08:24;99662.88;;;17.77;48.81
85166;BME280;75533;52.100;10.228;2024-02-16T03:10:49;99664.56;;;17.78;48.89
85166;BME280;75533;52.100;10.228;2024-02-16T03:13:14;99667.56;;;17.76;48.81
85166;BME280;75533;52.100;10.228;2024-02-16T03:15:43;99665.84;;;17.75;48.86
85166;BME280;75533;52.100;10.228;2024-02-16T03:18:08;99661.22;;;17.69;48.70
85166;BME280;75533;52.100;10.228;2024-02-16T03:20:35;99675.81;;;17.76;48.91
85166;BME280;75533;52.100;10.228;2024-02-16T03:23:01;99671.38;;;17.75;48.96
85166;BME280;75533;52.100;10.228;2024-02-16T03:25:26;99668.00;;;17.73;48.76
85166;BME280;75533;52.100;10.228;2024-02-16T03:27:51;99665.84;;;17.75;48.78
85166;BME280;75533;52.100;10.228;2024-02-16T03:30:18;99658.63;;;17.74;48.83
85166;BME280;75533;52.100;10.228;2024-02-16T03:32:50;99664.16;;;17.74;48.77
85166;BME280;75533;52.100;10.228;2024-02-16T03:35:16;99655.88;;;17.74;48.80
85166;BME280;75533;52.100;10.228;2024-02-16T03:37:42;99658.63;;;17.74;48.64
85166;BME280;75533;52.100;10.228;2024-02-16T03:40:08;99655.25;;;17.72;48.94
85166;BME280;75533;52.100;10.228;2024-02-16T03:42:35;99660.78;;;17.72;48.77
85166;BME280;75533;52.100;10.228;2024-02-16T03:45:00;99654.41;;;17.71;48.75
85166;BME280;75533;52.100;10.228;2024-02-16T03:47:26;99652.72;;;17.70;48.15
85166;BME280;75533;52.100;10.228;2024-02-16T03:49:51;99649.72;;;17.72;48.78
85166;BME280;75533;52.100;10.228;2024-02-16T03:52:17;99641.44;;;17.72;49.06
85166;BME280;75533;52.100;10.228;2024-02-16T03:54:42;99644.22;;;17.72;48.85
85166;BME280;75533;52.100;10.228;2024-02-16T03:57:09;99627.00;;;17.70;48.82
85166;BME280;75533;52.100;10.228;2024-02-16T03:59:36;99630.63;;;17.70;48.83
85166;BME280;75533;52.100;10.228;2024-02-16T04:02:02;99630.41;;;17.72;48.75
85166;BME280;75533;52.100;10.228;2024-02-16T04:04:27;99636.16;;;17.70;48.74
85166;BME280;75533;52.100;10.228;2024-02-16T04:06:53;99628.94;;;17.69;48.99
85166;BME280;75533;52.100;10.228;2024-02-16T04:09:18;99628.09;;;17.69;48.89
85166;BME280;75533;52.100;10.228;2024-02-16T04:11:45;99618.75;;;17.63;48.80
85166;BME280;75533;52.100;10.228;2024-02-16T04:14:10;99633.59;;;17.69;48.83
85166;BME280;75533;52.100;10.228;2024-02-16T04:16:36;99634.44;;;17.69;49.05
85166;BME280;75533;52.100;10.228;2024-02-16T04:19:02;99629.16;;;17.68;48.74
85166;BME280;75533;52.100;10.228;2024-02-16T04:21:27;99625.31;;;17.62;48.86
85166;BME280;75533;52.100;10.228;2024-02-16T04:23:52;99631.06;;;17.67;48.77
85166;BME280;75533;52.100;10.228;2024-02-16T04:26:18;99631.91;;;17.68;48.75
85166;BME280;75533;52.100;10.228;2024-02-16T04:28:43;99633.81;;;17.67;48.57
85166;BME280;75533;52.100;10.228;2024-02-16T04:31:08;99630.19;;;17.67;48.96
85166;BME280;75533;52.100;10.228;2024-02-16T04:33:33;99626.56;;;17.66;48.70
85166;BME280;75533;52.100;10.228;2024-02-16T04:35:59;99630.19;;;17.67;48.74
85166;BME280;75533;52.100;10.228;2024-02-16T04:38:24;99630.19;;;17.67;49.01
85166;BME280;75533;52.100;10.228;2024-02-16T04:40:49;99641.22;;;17.67;48.72
85166;BME280;75533;52.100;10.228;2024-02-16T04:43:15;99639.53;;;17.66;48.74
85166;BME280;75533;52.100;10.228;2024-02-16T04:45:40;99639.34;;;17.67;48.69
85166;BME280;75533;52.100;10.228;2024-02-16T04:48:06;99640.38;;;17.66;48.70
85166;BME280;75533;52.100;10.228;2024-02-16T04:50:32;99636.16;;;17.64;48.67
85166;BME280;75533;52.100;10.228;2024-02-16T04:52:58;99633.38;;;17.64;48.95
85166;BME280;75533;52.100;10.228;2024-02-16T04:55:23;99634.84;;;17.66;48.98
85166;BME280;75533;52.100;10.228;2024-02-16T04:57:48;99629.56;;;17.65;49.77
85166;BME280;75533;52.100;10.228;2024-02-16T05:00:14;99641.22;;;17.67;49.87
85166;BME280;75533;52.100;10.228;2024-02-16T05:02:39;99631.25;;;17.66;49.78
85166;BME280;75533;52.100;10.228;2024-02-16T05:05:05;99629.56;;;17.65;49.44
85166;BME280;75533;52.100;10.228;2024-02-16T05:07:30;99631.06;;;17.67;49.23
85166;BME280;75533;52.100;10.228;2024-02-16T05:10:01;99624.69;;;17.60;49.28
85166;BME280;75533;52.100;10.228;2024-02-16T05:12:27;99630.41;;;17.65;49.34
85166;BME280;75533;52.100;10.228;2024-02-16T05:14:52;99636.16;;;17.64;49.14
85166;BME280;75533;52.100;10.228;2024-02-16T05:17:18;99633.16;;;17.65;49.70
85166;BME280;75533;52.100;10.228;2024-02-16T05:19:45;99640.38;;;17.66;49.71
85166;BME280;75533;52.100;10.228;2024-02-16T05:22:10;99636.78;;;17.66;49.73
85166;BME280;75533;52.100;10.228;2024-02-16T05:24:35;99638.69;;;17.65;49.86
85166;BME280;75533;52.100;10.228;2024-02-16T05:27:01;99651.41;;;17.66;49.93
85166;BME280;75533;52.100;10.228;2024-02-16T05:29:26;99645.06;;;17.66;49.91
85166;BME280;75533;52.100;10.228;2024-02-16T05:31:52;99645.72;;;17.68;49.97
85166;BME280;75533;52.100;10.228;2024-02-16T05:34:18;99649.50;;;17.67;49.85
85166;BME280;75533;52.100;10.228;2024-02-16T05:36:43;99646.56;;;17.68;49.71
85166;BME280;75533;52.100;10.228;2024-02-16T05:39:10;99648.47;;;17.68;49.75
85166;BME280;75533;52.100;10.228;2024-02-16T05:41:45;99649.31;;;17.68;49.81
85166;BME280;75533;52.100;10.228;2024-02-16T05:44:11;99643.81;;;17.68;49.83
85166;BME280;75533;52.100;10.228;2024-02-16T05:46:36;99639.75;;;17.71;49.76
85166;BME280;75533;52.100;10.228;2024-02-16T05:49:03;99639.75;;;17.71;49.76
85166;BME280;75533;52.100;10.228;2024-02-16T05:51:37;99641.84;;;17.76;49.87
85166;BME280;75533;52.100;10.228;2024-02-16T05:54:04;99644.19;;;17.79;49.61
85166;BME280;75533;52.100;10.228;2024-02-16T05:56:29;99643.31;;;17.78;49.60
85166;BME280;75533;52.100;10.228;2024-02-16T05:58:59;99650.56;;;17.79;49.73
85166;BME280;75533;52.100;10.228;2024-02-16T06:01:24;99645.91;;;17.80;49.62
85166;BME280;75533;52.100;10.228;2024-02-16T06:03:49;99650.34;;;17.81;49.38
85166;BME280;75533;52.100;10.228;2024-02-16T06:06:15;99643.13;;;17.80;49.33
85166;BME280;75533;52.100;10.228;2024-02-16T06:08:40;99632.94;;;17.80;49.65
85166;BME280;75533;52.100;10.228;2024-02-16T06:11:07;99633.78;;;17.81;49.59
85166;BME280;75533;52.100;10.228;2024-02-16T06:13:32;99637.16;;;17.83;49.78
85166;BME280;75533;52.100;10.228;2024-02-16T06:15:58;99637.78;;;17.85;49.71
85166;BME280;75533;52.100;10.228;2024-02-16T06:18:23;99635.66;;;17.87;49.81
85166;BME280;75533;52.100;10.228;2024-02-16T06:20:48;99632.06;;;17.86;49.59
85166;BME280;75533;52.100;10.228;2024-02-16T06:23:14;99632.91;;;17.87;49.57
85166;BME280;75533;52.100;10.228;2024-02-16T06:25:42;99633.75;;;17.87;49.84
85166;BME280;75533;52.100;10.228;2024-02-16T06:28:07;99640.75;;;17.90;49.64
85166;BME280;75533;52.100;10.228;2024-02-16T06:30:33;99630.53;;;17.90;49.67
85166;BME280;75533;52.100;10.228;2024-02-16T06:32:58;99629.47;;;17.91;49.82
85166;BME280;75533;52.100;10.228;2024-02-16T06:35:24;99626.25;;;17.94;49.47
85166;BME280;75533;52.100;10.228;2024-02-16T06:37:49;99634.56;;;17.94;49.66
85166;BME280;75533;52.100;10.228;2024-02-16T06:40:14;99641.31;;;17.98;49.53
85166;BME280;75533;52.100;10.228;2024-02-16T06:42:40;99637.50;;;17.99;49.80
85166;BME280;75533;52.100;10.228;2024-02-16T06:45:05;99644.94;;;17.99;49.72
85166;BME280;75533;52.100;10.228;2024-02-16T06:47:31;99644.94;;;17.99;49.90
85166;BME280;75533;52.100;10.228;2024-02-16T06:49:57;99655.56;;;18.02;49.63
85166;BME280;75533;52.100;10.228;2024-02-16T06:52:22;99651.75;;;18.03;49.60
85166;BME280;75533;52.100;10.228;2024-02-16T06:54:47;99653.44;;;18.04;49.43
85166;BME280;75533;52.100;10.228;2024-02-16T06:57:15;99652.53;;;18.10;49.57
85166;BME280;75533;52.100;10.228;2024-02-16T06:59:40;99648.31;;;18.08;49.36
85166;BME280;75533;52.100;10.228;2024-02-16T07:02:06;99653.53;;;17.84;48.61
85166;BME280;75533;52.100;10.228;2024-02-16T07:04:32;99643.38;;;17.65;48.70
85166;BME280;75533;52.100;10.228;2024-02-16T07:06:57;99633.59;;;17.62;48.72
85166;BME280;75533;52.100;10.228;2024-02-16T07:09:22;99638.69;;;17.72;48.79
85166;BME280;75533;52.100;10.228;2024-02-16T07:11:48;99649.50;;;17.80;48.66
85166;BME280;75533;52.100;10.228;2024-02-16T07:14:15;99642.03;;;17.87;48.68
85166;BME280;75533;52.100;10.228;2024-02-16T07:16:41;99640.91;;;17.95;48.60
85166;BME280;75533;52.100;10.228;2024-02-16T07:19:06;99639.84;;;18.02;48.74
85166;BME280;75533;52.100;10.228;2024-02-16T07:21:31;99624.97;;;18.04;48.61
85166;BME280;75533;52.100;10.228;2024-02-16T07:23:57;99647.88;;;18.11;48.47
85166;BME280;75533;52.100;10.228;2024-02-16T07:26:22;99652.94;;;18.14;48.51
85166;BME280;75533;52.100;10.228;2024-02-16T07:28:48;99640.38;;;18.18;48.43
85166;BME280;75533;52.100;10.228;2024-02-16T07:31:13;99637.59;;;18.18;48.44
85166;BME280;75533;52.100;10.228;2024-02-16T07:33:39;99644.59;;;18.20;48.30
85166;BME280;75533;52.100;10.228;2024-02-16T07:36:05;99645.25;;;18.22;48.52
85166;BME280;75533;52.100;10.228;2024-02-16T07:38:30;99654.59;;;18.21;48.50
85166;BME280;75533;52.100;10.228;2024-02-16T07:40:56;99651.19;;;18.26;48.27
85166;BME280;75533;52.100;10.228;2024-02-16T07:43:21;99642.69;;;18.27;48.44
85166;BME280;75533;52.100;10.228;2024-02-16T07:45:49;99652.88;;;18.27;48.57
85166;BME280;75533;52.100;10.228;2024-02-16T07:48:15;99640.75;;;18.28;48.31
85166;BME280;75533;52.100;10.228;2024-02-16T07:50:40;99641.38;;;18.30;48.42
85166;BME280;75533;52.100;10.228;2024-02-16T07:53:06;99642.63;;;18.34;48.18
85166;BME280;75533;52.100;10.228;2024-02-16T07:55:31;99644.31;;;18.35;48.31
85166;BME280;75533;52.100;10.228;2024-02-16T07:57:57;99652.81;;;18.33;48.56
85166;BME280;75533;52.100;10.228;2024-02-16T08:00:22;99654.91;;;18.38;48.51
85166;BME280;75533;52.100;10.228;2024-02-16T08:02:48;99657.91;;;18.37;48.54
85166;BME280;75533;52.100;10.228;2024-02-16T08:05:13;99660.22;;;18.40;48.41
85166;BME280;75533;52.100;10.228;2024-02-16T08:07:39;99654.91;;;18.38;48.43
85166;BME280;75533;52.100;10.228;2024-02-16T08:10:07;99660.44;;;18.38;48.40
85166;BME280;75533;52.100;10.228;2024-02-16T08:12:33;99661.06;;;18.40;48.44
85166;BME280;75533;52.100;10.228;2024-02-16T08:15:03;99664.47;;;18.42;48.32
85166;BME280;75533;52.100;10.228;2024-02-16T08:17:29;99667.03;;;18.44;48.50
85166;BME280;75533;52.100;10.228;2024-02-16T08:19:56;99661.50;;;18.44;48.74
85166;BME280;75533;52.100;10.228;2024-02-16T08:22:21;99658.94;;;18.42;48.47
85166;BME280;75533;52.100;10.228;2024-02-16T08:24:47;99664.25;;;18.44;48.52
85166;BME280;75533;52.100;10.228;2024-02-16T08:27:14;99661.28;;;18.45;48.69
85166;BME280;75533;52.100;10.228;2024-02-16T08:29:41;99664.03;;;18.45;48.60
85166;BME280;75533;52.100;10.228;2024-02-16T08:32:06;99664.03;;;18.45;48.70
85166;BME280;75533;52.100;10.228;2024-02-16T08:34:31;99660.81;;;18.48;48.96
85166;BME280;75533;52.100;10.228;2024-02-16T08:36:57;99663.38;;;18.50;48.86
85166;BME280;75533;52.100;10.228;2024-02-16T08:39:22;99658.91;;;18.49;48.85
85166;BME280;75533;52.100;10.228;2024-02-16T08:41:51;99665.69;;;18.53;48.70
85166;BME280;75533;52.100;10.228;2024-02-16T08:44:16;99662.28;;;18.51;48.75
85166;BME280;75533;52.100;10.228;2024-02-16T08:46:41;99668.91;;;18.50;48.80
85166;BME280;75533;52.100;10.228;2024-02-16T08:49:07;99657.84;;;18.50;48.74
85166;BME280;75533;52.100;10.228;2024-02-16T08:51:32;99662.97;;;18.46;48.77
85166;BME280;75533;52.100;10.228;2024-02-16T08:54:01;99657.84;;;18.50;49.00
85166;BME280;75533;52.100;10.228;2024-02-16T08:56:29;99657.59;;;18.51;48.89
85166;BME280;75533;52.100;10.228;2024-02-16T08:58:55;99655.28;;;18.48;48.93
85166;BME280;75533;52.100;10.228;2024-02-16T09:01:30;99659.94;;;18.54;48.68
85166;BME280;75533;52.100;10.228;2024-02-16T09:03:56;99655.88;;;18.57;48.64
85166;BME280;75533;52.100;10.228;2024-02-16T09:06:21;99659.47;;;18.57;48.80
85166;BME280;75533;52.100;10.228;2024-02-16T09:08:46;99652.66;;;18.60;48.85
85166;BME280;75533;52.100;10.228;2024-02-16T09:11:12;99651.56;;;18.61;48.88
85166;BME280;75533;52.100;10.228;2024-02-16T09:13:39;99657.31;;;18.59;48.70
85166;BME280;75533;52.100;10.228;2024-02-16T09:16:06;99649.66;;;18.61;48.99
85166;BME280;75533;52.100;10.228;2024-02-16T09:18:31;99651.81;;;18.59;48.82
85166;BME280;75533;52.100;10.228;2024-02-16T09:20:57;99651.19;;;18.57;48.87
85166;BME280;75533;52.100;10.228;2024-02-16T09:23:22;99647.78;;;18.55;49.00
85166;BME280;75533;52.100;10.228;2024-02-16T09:25:48;99646.09;;;18.54;49.15
85166;BME280;75533;52.100;10.228;2024-02-16T09:28:14;99649.72;;;18.55;48.88
85166;BME280;75533;52.100;10.228;2024-02-16T09:30:39;99647.56;;;18.57;49.17
85166;BME280;75533;52.100;10.228;2024-02-16T09:33:05;99657.78;;;18.56;48.97
85166;BME280;75533;52.100;10.228;2024-02-16T09:35:32;99658.00;;;18.55;48.90
85166;BME280;75533;52.100;10.228;2024-02-16T09:37:57;99665.63;;;18.59;49.14
85166;BME280;75533;52.100;10.228;2024-02-16T09:40:23;99660.53;;;18.63;48.90
85166;BME280;75533;52.100;10.228;2024-02-16T09:42:49;99670.50;;;18.64;48.96
85166;BME280;75533;52.100;10.228;2024-02-16T09:45:15;99665.41;;;18.68;48.91
85166;BME280;75533;52.100;10.228;2024-02-16T09:47:42;99683.69;;;18.69;48.85
85166;BME280;75533;52.100;10.228;2024-02-16T09:50:09;99678.63;;;18.66;48.92
85166;BME280;75533;52.100;10.228;2024-02-16T09:52:35;99682.00;;;18.68;49.01
85166;BME280;75533;52.100;10.228;2024-02-16T09:55:01;99685.38;;;18.70;48.79
85166;BME280;75533;52.100;10.228;2024-02-16T09:57:26;99680.06;;;18.68;48.75
85166;BME280;75533;52.100;10.228;2024-02-16T09:59:52;99693.84;;;18.75;48.79
85166;BME280;75533;52.100;10.228;2024-02-16T10:02:17;99690.47;;;18.73;48.82
85166;BME280;75533;52.100;10.228;2024-02-16T10:04:43;99698.09;;;18.77;48.76
85166;BME280;75533;52.100;10.228;2024-02-16T10:07:08;99696.31;;;18.83;48.70
85166;BME280;75533;52.100;10.228;2024-02-16T10:09:33;99696.09;;;18.84;48.69
85166;BME280;75533;52.100;10.228;2024-02-16T10:11:59;99698.25;;;18.82;48.88
85166;BME280;75533;52.100;10.228;2024-02-16T10:14:24;99705.25;;;18.85;48.71
85166;BME280;75533;52.100;10.228;2024-02-16T10:17:05;99709.50;;;18.87;48.78
85166;BME280;75533;52.100;10.228;2024-02-16T10:19:32;99715.03;;;18.87;48.77
85166;BME280;75533;52.100;10.228;2024-02-16T10:22:11;99720.50;;;18.94;48.69
85166;BME280;75533;52.100;10.228;2024-02-16T10:24:38;99713.47;;;18.98;48.67
85166;BME280;75533;52.100;10.228;2024-02-16T10:27:05;99728.13;;;18.99;48.72
85166;BME280;75533;52.100;10.228;2024-02-16T10:29:32;99731.53;;;19.01;48.76
85166;BME280;75533;52.100;10.228;2024-02-16T10:31:57;99727.69;;;19.02;48.75
85166;BME280;75533;52.100;10.228;2024-02-16T10:34:24;99719.59;;;19.00;48.60
85166;BME280;75533;52.100;10.228;2024-02-16T10:36:49;99725.13;;;19.00;48.69
85166;BME280;75533;52.100;10.228;2024-02-16T10:39:16;99717.47;;;19.02;48.67
85166;BME280;75533;52.100;10.228;2024-02-16T10:41:44;99731.53;;;19.01;48.78
85166;BME280;75533;52.100;10.228;2024-02-16T10:44:11;99726.38;;;19.04;48.72
85166;BME280;75533;52.100;10.228;2024-02-16T10:46:36;99721.31;;;19.01;48.83
85166;BME280;75533;52.100;10.228;2024-02-16T10:49:02;99721.31;;;19.01;48.92
85166;BME280;75533;52.100;10.228;2024-02-16T10:51:46;99712.38;;;18.99;48.71
85166;BME280;75533;52.100;10.228;2024-02-16T10:54:17;99709.84;;;18.98;48.68
85166;BME280;75533;52.100;10.228;2024-02-16T10:56:43;99709.91;;;18.91;48.64
85166;BME280;75533;52.100;10.228;2024-02-16T10:59:09;99711.19;;;18.88;48.82
85166;BME280;75533;52.100;10.228;2024-02-16T11:01:43;99705.91;;;18.87;49.09
85166;BME280;75533;52.100;10.228;2024-02-16T11:04:14;99709.06;;;18.90;48.85
85166;BME280;75533;52.100;10.228;2024-02-16T11:06:56;99703.28;;;18.92;48.86
85166;BME280;75533;52.100;10.228;2024-02-16T11:09:34;99705.22;;;18.91;48.93
85166;BME280;75533;52.100;10.228;2024-02-16T11:12:01;99700.13;;;18.88;49.00
85166;BME280;75533;52.100;10.228;2024-02-16T11:14:56;99706.06;;;18.92;49.01
85166;BME280;75533;52.100;10.228;2024-02-16T11:17:23;99695.00;;;18.92;48.68
85166;BME280;75533;52.100;10.228;2024-02-16T11:19:49;99692.84;;;18.94;48.73
85166;BME280;75533;52.100;10.228;2024-02-16T11:22:18;99683.94;;;18.92;48.65
85166;BME280;75533;52.100;10.228;2024-02-16T11:24:45;99689.47;;;18.92;48.93
85166;BME280;75533;52.100;10.228;2024-02-16T11:27:11;99694.16;;;18.91;48.85
85166;BME280;75533;52.100;10.228;2024-02-16T11:29:38;99690.31;;;18.92;48.99
85166;BME280;75533;52.100;10.228;2024-02-16T11:32:05;99683.94;;;18.92;48.79
85166;BME280;75533;52.100;10.228;2024-02-16T11:34:31;99681.41;;;18.90;48.90
85166;BME280;75533;52.100;10.228;2024-02-16T11:36:58;99686.69;;;18.92;48.58
85166;BME280;75533;52.100;10.228;2024-02-16T11:39:24;99695.00;;;18.92;48.72
85166;BME280;75533;52.100;10.228;2024-02-16T11:42:07;99691.16;;;18.93;48.74
85166;BME280;75533;52.100;10.228;2024-02-16T11:44:36;99685.63;;;18.93;48.66
85166;BME280;75533;52.100;10.228;2024-02-16T11:47:03;99678.41;;;18.92;48.56
85166;BME280;75533;52.100;10.228;2024-02-16T11:49:29;99677.31;;;18.93;48.79
85166;BME280;75533;52.100;10.228;2024-02-16T11:51:55;99676.47;;;18.92;48.67
85166;BME280;75533;52.100;10.228;2024-02-16T11:54:20;99670.94;;;18.92;48.44
85166;BME280;75533;52.100;10.228;2024-02-16T11:56:46;99678.19;;;18.93;48.71
85166;BME280;75533;52.100;10.228;2024-02-16T11:59:13;99679.25;;;18.92;48.51
85166;BME280;75533;52.100;10.228;2024-02-16T12:01:53;99683.72;;;18.93;48.53
85166;BME280;75533;52.100;10.228;2024-02-16T12:04:23;99676.25;;;18.94;48.45
85166;BME280;75533;52.100;10.228;2024-02-16T12:06:57;99675.41;;;18.93;48.57
85166;BME280;75533;52.100;10.228;2024-02-16T12:09:23;99678.78;;;18.96;48.50
85166;BME280;75533;52.100;10.228;2024-02-16T12:11:49;99673.25;;;18.96;48.52
85166;BME280;75533;52.100;10.228;2024-02-16T12:14:20;99673.50;;;18.94;48.48
85166;BME280;75533;52.100;10.228;2024-02-16T12:16:54;99674.09;;;18.96;48.56
85166;BME280;75533;52.100;10.228;2024-02-16T12:19:21;99677.72;;;18.97;48.65
85166;BME280;75533;52.100;10.228;2024-02-16T12:21:54;99679.63;;;18.96;48.79
85166;BME280;75533;52.100;10.228;2024-02-16T12:24:22;99679.63;;;18.96;48.53
85166;BME280;75533;52.100;10.228;2024-02-16T12:26:47;99691.78;;;18.95;48.91
85166;BME280;75533;52.100;10.228;2024-02-16T12:29:13;99681.16;;;18.92;49.05
85166;BME280;75533;52.100;10.228;2024-02-16T12:31:42;99683.72;;;18.93;48.84
85166;BME280;75533;52.100;10.228;2024-02-16T12:34:09;99686.47;;;18.93;48.68
85166;BME280;75533;52.100;10.228;2024-02-16T12:36:39;99689.00;;;18.95;48.70
85166;BME280;75533;52.100;10.228;2024-02-16T12:39:05;99685.16;;;18.96;48.73
85166;BME280;75533;52.100;10.228;2024-02-16T12:41:32;99690.25;;;18.99;48.77
85166;BME280;75533;52.100;10.228;2024-02-16T12:43:57;99689.56;;;19.04;48.55
85166;BME280;75533;52.100;10.228;2024-02-16T12:46:22;99691.25;;;19.05;48.57